SWA3602 KBWI-KMCO
Flight info
| Callsign | SWA3602 |
|---|---|
| Flight time | 2h 9m |
| Altitude | 36000 |
| Route | TERPZ8 RRSIN GSO Q83 ROYCO Q85 LPERD SNFLD3 |
| Aircraft | B738/M-SDE2E3FGHIRWXY/LB1 |
Departure
| Time | 2026-04-25 23:52 |
|---|---|
| Airport | Baltimore/Washington International Thurgood Marshall Airport (KBWI) |
Arrival
| Time | 2026-04-26 02:02 |
|---|---|
| Airport | Orlando International Airport (KMCO) |
| Time | Latitude | Longitude | Altitude | Speed | Heading |
|---|---|---|---|---|---|
| 2026-04-25 23:37 | 39.18068 | -76.67383 | 145 ft | 0 kts | 55° |
| 2026-04-25 23:44 | 39.18067 | -76.67384 | 145 ft | 2 kts | 55° |
| 2026-04-25 23:44 | 39.18051 | -76.67410 | 145 ft | 4 kts | 44° |
| 2026-04-25 23:45 | 39.18030 | -76.67430 | 145 ft | 4 kts | 15° |
| 2026-04-25 23:45 | 39.18009 | -76.67428 | 145 ft | 2 kts | 324° |
| 2026-04-25 23:45 | 39.18008 | -76.67427 | 145 ft | 0 kts | 324° |
| 2026-04-25 23:48 | 39.18010 | -76.67429 | 145 ft | 1 kts | 323° |
| 2026-04-25 23:48 | 39.18025 | -76.67443 | 145 ft | 4 kts | 324° |
| 2026-04-25 23:48 | 39.18061 | -76.67477 | 145 ft | 8 kts | 324° |
| 2026-04-25 23:48 | 39.18120 | -76.67532 | 145 ft | 13 kts | 324° |
| 2026-04-25 23:49 | 39.18194 | -76.67614 | 147 ft | 8 kts | 295° |
| 2026-04-25 23:49 | 39.18196 | -76.67688 | 148 ft | 12 kts | 280° |
| 2026-04-25 23:49 | 39.18282 | -76.67789 | 147 ft | 22 kts | 324° |
| 2026-04-25 23:49 | 39.18433 | -76.67928 | 147 ft | 30 kts | 324° |
| 2026-04-25 23:50 | 39.18568 | -76.68074 | 143 ft | 9 kts | 290° |
| 2026-04-25 23:50 | 39.18570 | -76.68084 | 143 ft | 0 kts | 281° |
| 2026-04-25 23:51 | 39.18560 | -76.68132 | 144 ft | 12 kts | 242° |
| 2026-04-25 23:51 | 39.18492 | -76.68157 | 143 ft | 12 kts | 148° |
| 2026-04-25 23:51 | 39.18374 | -76.68047 | 146 ft | 34 kts | 144° |
| 2026-04-25 23:52 | 39.17947 | -76.67654 | 147 ft | 116 kts | 144° |
| 2026-04-25 23:52 | 39.17134 | -76.66872 | 440 ft | 160 kts | 138° |
| 2026-04-25 23:52 | 39.16227 | -76.65954 | 1378 ft | 171 kts | 139° |
| 2026-04-25 23:52 | 39.15368 | -76.64938 | 2585 ft | 161 kts | 133° |
| 2026-04-25 23:53 | 39.14515 | -76.64075 | 3458 ft | 164 kts | 149° |
| 2026-04-25 23:53 | 39.13494 | -76.63201 | 3948 ft | 184 kts | 150° |
| 2026-04-25 23:53 | 39.12424 | -76.62308 | 4853 ft | 180 kts | 150° |
| 2026-04-25 23:53 | 39.11370 | -76.61410 | 5537 ft | 193 kts | 149° |
| 2026-04-25 23:54 | 39.10129 | -76.60316 | 5450 ft | 243 kts | 149° |
| 2026-04-25 23:54 | 39.08499 | -76.58871 | 4895 ft | 309 kts | 148° |
| 2026-04-25 23:54 | 39.06643 | -76.57293 | 5544 ft | 315 kts | 150° |
| 2026-04-25 23:54 | 39.04943 | -76.55910 | 7682 ft | 258 kts | 152° |
| 2026-04-25 23:55 | 39.03517 | -76.54821 | 9319 ft | 239 kts | 156° |
| 2026-04-25 23:55 | 39.01817 | -76.54322 | 9500 ft | 258 kts | 192° |
| 2026-04-25 23:55 | 39.00175 | -76.55206 | 9768 ft | 270 kts | 225° |
| 2026-04-25 23:55 | 38.99193 | -76.57254 | 10315 ft | 275 kts | 257° |
| 2026-04-25 23:56 | 38.99204 | -76.59775 | 10521 ft | 299 kts | 287° |
| 2026-04-25 23:56 | 39.00332 | -76.62101 | 10876 ft | 320 kts | 315° |
| 2026-04-25 23:56 | 39.02015 | -76.64007 | 11591 ft | 322 kts | 307° |
| 2026-04-25 23:56 | 39.02961 | -76.66616 | 12388 ft | 323 kts | 279° |
| 2026-04-25 23:57 | 39.03216 | -76.69501 | 13143 ft | 327 kts | 284° |
| 2026-04-25 23:57 | 39.04158 | -76.72183 | 13846 ft | 332 kts | 300° |
| 2026-04-25 23:57 | 39.05417 | -76.74695 | 14551 ft | 335 kts | 302° |
| 2026-04-25 23:57 | 39.06700 | -76.77209 | 15240 ft | 338 kts | 301° |
| 2026-04-25 23:58 | 39.07949 | -76.79794 | 15921 ft | 341 kts | 300° |
| 2026-04-25 23:58 | 39.09151 | -76.82433 | 16609 ft | 344 kts | 298° |
| 2026-04-25 23:58 | 39.10364 | -76.85218 | 17292 ft | 348 kts | 297° |
| 2026-04-25 23:58 | 39.11492 | -76.87881 | 17926 ft | 352 kts | 297° |
| 2026-04-25 23:59 | 39.12668 | -76.90699 | 18552 ft | 356 kts | 296° |
| 2026-04-25 23:59 | 39.13863 | -76.93581 | 19134 ft | 359 kts | 296° |
| 2026-04-25 23:59 | 39.15011 | -76.96358 | 19690 ft | 362 kts | 296° |
| 2026-04-25 23:59 | 39.16200 | -76.99235 | 20266 ft | 365 kts | 296° |
| 2026-04-26 00:00 | 39.17392 | -77.02123 | 20826 ft | 368 kts | 295° |
| 2026-04-26 00:00 | 39.18624 | -77.05108 | 21376 ft | 371 kts | 295° |
| 2026-04-26 00:00 | 39.19584 | -77.08386 | 21936 ft | 371 kts | 278° |
| 2026-04-26 00:00 | 39.19713 | -77.10435 | 22270 ft | 371 kts | 267° |
| 2026-04-26 00:01 | 39.18961 | -77.14736 | 23009 ft | 374 kts | 246° |
| 2026-04-26 00:01 | 39.17594 | -77.17605 | 23537 ft | 379 kts | 232° |
| 2026-04-26 00:01 | 39.15612 | -77.19886 | 23972 ft | 386 kts | 219° |
| 2026-04-26 00:01 | 39.13414 | -77.21881 | 24468 ft | 387 kts | 217° |
| 2026-04-26 00:02 | 39.11155 | -77.23823 | 24915 ft | 390 kts | 217° |
| 2026-04-26 00:02 | 39.08870 | -77.25758 | 25355 ft | 392 kts | 217° |
| 2026-04-26 00:02 | 39.06581 | -77.27700 | 25777 ft | 394 kts | 217° |
| 2026-04-26 00:02 | 39.04305 | -77.29645 | 26229 ft | 395 kts | 217° |
| 2026-04-26 00:03 | 39.02006 | -77.31624 | 26646 ft | 396 kts | 217° |
| 2026-04-26 00:03 | 38.99711 | -77.33610 | 27039 ft | 399 kts | 217° |
| 2026-04-26 00:03 | 38.97404 | -77.35613 | 27423 ft | 401 kts | 217° |
| 2026-04-26 00:03 | 38.95088 | -77.37626 | 27834 ft | 403 kts | 217° |
| 2026-04-26 00:04 | 38.93556 | -77.38958 | 28099 ft | 404 kts | 217° |
| 2026-04-26 00:04 | 38.90432 | -77.41675 | 28601 ft | 406 kts | 217° |
| 2026-04-26 00:04 | 38.88876 | -77.43027 | 28834 ft | 408 kts | 217° |
| 2026-04-26 00:04 | 38.86522 | -77.45071 | 29195 ft | 410 kts | 217° |
| 2026-04-26 00:05 | 38.84352 | -77.46953 | 29521 ft | 411 kts | 217° |
| 2026-04-26 00:05 | 38.82523 | -77.48539 | 29792 ft | 413 kts | 217° |
| 2026-04-26 00:05 | 38.80050 | -77.50681 | 30116 ft | 415 kts | 217° |
| 2026-04-26 00:05 | 38.77658 | -77.52753 | 30418 ft | 416 kts | 217° |
| 2026-04-26 00:06 | 38.75258 | -77.54828 | 30776 ft | 415 kts | 217° |
| 2026-04-26 00:06 | 38.72868 | -77.56892 | 31260 ft | 411 kts | 217° |
| 2026-04-26 00:06 | 38.70512 | -77.58924 | 31778 ft | 406 kts | 217° |
| 2026-04-26 00:06 | 38.68179 | -77.60935 | 32237 ft | 403 kts | 217° |
| 2026-04-26 00:07 | 38.65858 | -77.62936 | 32631 ft | 401 kts | 217° |
| 2026-04-26 00:07 | 38.63549 | -77.64925 | 33020 ft | 399 kts | 217° |
| 2026-04-26 00:07 | 38.61251 | -77.66904 | 33455 ft | 396 kts | 217° |
| 2026-04-26 00:07 | 38.58975 | -77.68861 | 33883 ft | 393 kts | 217° |
| 2026-04-26 00:08 | 38.56712 | -77.70806 | 34233 ft | 391 kts | 217° |
| 2026-04-26 00:08 | 38.54453 | -77.72747 | 34526 ft | 390 kts | 217° |
| 2026-04-26 00:08 | 38.52200 | -77.74681 | 34804 ft | 390 kts | 217° |
| 2026-04-26 00:08 | 38.49950 | -77.76611 | 35067 ft | 390 kts | 217° |
| 2026-04-26 00:09 | 38.47695 | -77.78544 | 35236 ft | 392 kts | 218° |
| 2026-04-26 00:09 | 38.45423 | -77.80491 | 35392 ft | 394 kts | 218° |
| 2026-04-26 00:09 | 38.43148 | -77.82438 | 35594 ft | 395 kts | 218° |
| 2026-04-26 00:09 | 38.40870 | -77.84385 | 35849 ft | 393 kts | 218° |
| 2026-04-26 00:10 | 38.38595 | -77.86327 | 35944 ft | 397 kts | 218° |
| 2026-04-26 00:10 | 38.33992 | -77.90256 | 35927 ft | 398 kts | 218° |
| 2026-04-26 00:11 | 38.29421 | -77.94146 | 35922 ft | 392 kts | 218° |
| 2026-04-26 00:11 | 38.24908 | -77.97983 | 35934 ft | 390 kts | 218° |
| 2026-04-26 00:12 | 38.20396 | -78.01816 | 35936 ft | 389 kts | 218° |
| 2026-04-26 00:12 | 38.15896 | -78.05632 | 35927 ft | 389 kts | 218° |
| 2026-04-26 00:13 | 38.11387 | -78.09450 | 35924 ft | 389 kts | 218° |
| 2026-04-26 00:13 | 38.06874 | -78.13267 | 35929 ft | 390 kts | 218° |
| 2026-04-26 00:14 | 38.02373 | -78.17066 | 35924 ft | 392 kts | 218° |
| 2026-04-26 00:14 | 37.97799 | -78.20922 | 35924 ft | 393 kts | 218° |
| 2026-04-26 00:15 | 37.93207 | -78.24786 | 35923 ft | 394 kts | 218° |
| 2026-04-26 00:15 | 37.88625 | -78.28636 | 35929 ft | 395 kts | 218° |
| 2026-04-26 00:16 | 37.84033 | -78.32488 | 35915 ft | 396 kts | 217° |
| 2026-04-26 00:16 | 37.79434 | -78.36341 | 35920 ft | 397 kts | 217° |
| 2026-04-26 00:17 | 37.74838 | -78.40185 | 35915 ft | 396 kts | 217° |
| 2026-04-26 00:17 | 37.70268 | -78.44001 | 35915 ft | 396 kts | 217° |
| 2026-04-26 00:18 | 37.65686 | -78.47822 | 35915 ft | 395 kts | 217° |
| 2026-04-26 00:18 | 37.61086 | -78.51653 | 35910 ft | 395 kts | 217° |
| 2026-04-26 00:19 | 37.56469 | -78.55492 | 35910 ft | 395 kts | 217° |
| 2026-04-26 00:19 | 37.51890 | -78.59293 | 35910 ft | 394 kts | 217° |
| 2026-04-26 00:20 | 37.47279 | -78.63116 | 35905 ft | 394 kts | 217° |
| 2026-04-26 00:20 | 37.42661 | -78.66938 | 35908 ft | 394 kts | 217° |
| 2026-04-26 00:21 | 37.38086 | -78.70719 | 35905 ft | 394 kts | 217° |
| 2026-04-26 00:21 | 37.33509 | -78.74496 | 35906 ft | 394 kts | 217° |
| 2026-04-26 00:22 | 37.28917 | -78.78280 | 35908 ft | 394 kts | 217° |
| 2026-04-26 00:22 | 37.24442 | -78.82000 | 35908 ft | 393 kts | 219° |
| 2026-04-26 00:23 | 37.20257 | -78.85555 | 35913 ft | 394 kts | 217° |
| 2026-04-26 00:23 | 37.15635 | -78.89266 | 35905 ft | 395 kts | 217° |
| 2026-04-26 00:24 | 37.11041 | -78.92970 | 35902 ft | 395 kts | 217° |
| 2026-04-26 00:24 | 37.06429 | -78.96731 | 35902 ft | 396 kts | 217° |
| 2026-04-26 00:25 | 37.01817 | -79.00501 | 35902 ft | 396 kts | 217° |
| 2026-04-26 00:25 | 36.97176 | -79.04288 | 35907 ft | 396 kts | 217° |
| 2026-04-26 00:26 | 36.92731 | -79.08304 | 35912 ft | 393 kts | 223° |
| 2026-04-26 00:26 | 36.88521 | -79.12657 | 35899 ft | 393 kts | 223° |
| 2026-04-26 00:27 | 36.84349 | -79.16991 | 35901 ft | 393 kts | 223° |
| 2026-04-26 00:27 | 36.80137 | -79.21329 | 35902 ft | 393 kts | 223° |
| 2026-04-26 00:28 | 36.75882 | -79.25684 | 35903 ft | 393 kts | 223° |
| 2026-04-26 00:28 | 36.71657 | -79.29996 | 35915 ft | 393 kts | 223° |
| 2026-04-26 00:29 | 36.67426 | -79.34307 | 35916 ft | 393 kts | 223° |
| 2026-04-26 00:29 | 36.63222 | -79.38584 | 35911 ft | 393 kts | 223° |
| 2026-04-26 00:30 | 36.58993 | -79.42880 | 35919 ft | 393 kts | 223° |
| 2026-04-26 00:30 | 36.54758 | -79.47178 | 35916 ft | 393 kts | 223° |
| 2026-04-26 00:31 | 36.50524 | -79.51467 | 35910 ft | 393 kts | 223° |
| 2026-04-26 00:31 | 36.46970 | -79.55062 | 35913 ft | 393 kts | 223° |
| 2026-04-26 00:32 | 36.42730 | -79.59346 | 35910 ft | 393 kts | 222° |
| 2026-04-26 00:32 | 36.36283 | -79.65848 | 35914 ft | 393 kts | 222° |
| 2026-04-26 00:33 | 36.32039 | -79.70120 | 35912 ft | 393 kts | 222° |
| 2026-04-26 00:33 | 36.27800 | -79.74381 | 35913 ft | 393 kts | 222° |
| 2026-04-26 00:34 | 36.23520 | -79.78678 | 35914 ft | 393 kts | 222° |
| 2026-04-26 00:34 | 36.19281 | -79.82927 | 35916 ft | 393 kts | 222° |
| 2026-04-26 00:35 | 36.15020 | -79.87193 | 35914 ft | 393 kts | 222° |
| 2026-04-26 00:35 | 36.10766 | -79.91446 | 35915 ft | 393 kts | 222° |
| 2026-04-26 00:36 | 36.06514 | -79.95684 | 35915 ft | 393 kts | 221° |
| 2026-04-26 00:36 | 36.01747 | -79.99108 | 35912 ft | 401 kts | 207° |
| 2026-04-26 00:37 | 35.96552 | -80.01646 | 35907 ft | 402 kts | 206° |
| 2026-04-26 00:37 | 35.91361 | -80.04176 | 35909 ft | 402 kts | 206° |
| 2026-04-26 00:38 | 35.86164 | -80.06731 | 35920 ft | 402 kts | 207° |
| 2026-04-26 00:38 | 35.80975 | -80.09292 | 35929 ft | 401 kts | 207° |
| 2026-04-26 00:39 | 35.75811 | -80.11839 | 35929 ft | 401 kts | 207° |
| 2026-04-26 00:39 | 35.70603 | -80.14405 | 35939 ft | 401 kts | 207° |
| 2026-04-26 00:40 | 35.65418 | -80.16956 | 35931 ft | 401 kts | 207° |
| 2026-04-26 00:40 | 35.60140 | -80.19548 | 35944 ft | 402 kts | 207° |
| 2026-04-26 00:41 | 35.54937 | -80.22100 | 35947 ft | 402 kts | 207° |
| 2026-04-26 00:41 | 35.49747 | -80.24643 | 35958 ft | 401 kts | 207° |
| 2026-04-26 00:42 | 35.44516 | -80.27202 | 35960 ft | 402 kts | 206° |
| 2026-04-26 00:42 | 35.40125 | -80.29320 | 35951 ft | 403 kts | 204° |
| 2026-04-26 00:43 | 35.33560 | -80.30966 | 35947 ft | 411 kts | 194° |
| 2026-04-26 00:43 | 35.27844 | -80.32001 | 35935 ft | 412 kts | 194° |
| 2026-04-26 00:44 | 35.22107 | -80.33059 | 35933 ft | 412 kts | 194° |
| 2026-04-26 00:44 | 35.17360 | -80.33951 | 35911 ft | 412 kts | 194° |
| 2026-04-26 00:45 | 35.11688 | -80.35025 | 35906 ft | 413 kts | 194° |
| 2026-04-26 00:45 | 35.06014 | -80.36099 | 35914 ft | 413 kts | 194° |
| 2026-04-26 00:46 | 35.00318 | -80.37175 | 35910 ft | 414 kts | 194° |
| 2026-04-26 00:46 | 34.94618 | -80.38251 | 35908 ft | 415 kts | 194° |
| 2026-04-26 00:47 | 34.88914 | -80.39325 | 35908 ft | 415 kts | 194° |
| 2026-04-26 00:47 | 34.83159 | -80.40408 | 35909 ft | 416 kts | 194° |
| 2026-04-26 00:48 | 34.77447 | -80.41482 | 35904 ft | 416 kts | 194° |
| 2026-04-26 00:48 | 34.71713 | -80.42557 | 35897 ft | 417 kts | 194° |
| 2026-04-26 00:49 | 34.65983 | -80.43631 | 35895 ft | 417 kts | 194° |
| 2026-04-26 00:49 | 34.60247 | -80.44704 | 35894 ft | 417 kts | 194° |
| 2026-04-26 00:50 | 34.54450 | -80.45787 | 35895 ft | 418 kts | 194° |
| 2026-04-26 00:50 | 34.48637 | -80.46871 | 35901 ft | 418 kts | 194° |
| 2026-04-26 00:51 | 34.43012 | -80.47920 | 35897 ft | 418 kts | 194° |
| 2026-04-26 00:51 | 34.37116 | -80.49017 | 35905 ft | 418 kts | 194° |
| 2026-04-26 00:52 | 34.31284 | -80.50101 | 35905 ft | 418 kts | 194° |
| 2026-04-26 00:52 | 34.25523 | -80.51192 | 35905 ft | 417 kts | 197° |
| 2026-04-26 00:53 | 34.19860 | -80.52790 | 35913 ft | 415 kts | 199° |
| 2026-04-26 00:53 | 34.14261 | -80.54530 | 35894 ft | 415 kts | 199° |
| 2026-04-26 00:54 | 34.08613 | -80.56258 | 35859 ft | 416 kts | 199° |
| 2026-04-26 00:54 | 34.03002 | -80.57943 | 35860 ft | 416 kts | 199° |
| 2026-04-26 00:55 | 33.97342 | -80.59629 | 35863 ft | 416 kts | 199° |
| 2026-04-26 00:55 | 33.91712 | -80.61303 | 35861 ft | 417 kts | 199° |
| 2026-04-26 00:56 | 33.86085 | -80.62973 | 35855 ft | 417 kts | 199° |
| 2026-04-26 00:56 | 33.80445 | -80.64647 | 35856 ft | 417 kts | 199° |
| 2026-04-26 00:57 | 33.74766 | -80.66329 | 35858 ft | 418 kts | 199° |
| 2026-04-26 00:57 | 33.69081 | -80.68011 | 35863 ft | 418 kts | 199° |
| 2026-04-26 00:58 | 33.63435 | -80.69680 | 35881 ft | 419 kts | 199° |
| 2026-04-26 00:58 | 33.57774 | -80.71351 | 35884 ft | 419 kts | 199° |
| 2026-04-26 00:59 | 33.53017 | -80.72752 | 35900 ft | 419 kts | 199° |
| 2026-04-26 00:59 | 33.46427 | -80.74692 | 35906 ft | 420 kts | 199° |
| 2026-04-26 01:00 | 33.41674 | -80.76090 | 35906 ft | 420 kts | 199° |
| 2026-04-26 01:00 | 33.35958 | -80.77770 | 35906 ft | 420 kts | 199° |
| 2026-04-26 01:01 | 33.30269 | -80.79440 | 35897 ft | 421 kts | 199° |
| 2026-04-26 01:01 | 33.24540 | -80.81119 | 35903 ft | 421 kts | 199° |
| 2026-04-26 01:02 | 33.18811 | -80.82796 | 35885 ft | 422 kts | 199° |
| 2026-04-26 01:02 | 33.13100 | -80.84465 | 35896 ft | 422 kts | 199° |
| 2026-04-26 01:03 | 33.07431 | -80.86119 | 35886 ft | 422 kts | 199° |
| 2026-04-26 01:03 | 33.01724 | -80.87783 | 35894 ft | 422 kts | 199° |
| 2026-04-26 01:04 | 32.95965 | -80.89412 | 35900 ft | 425 kts | 196° |
| 2026-04-26 01:04 | 32.90063 | -80.90472 | 35897 ft | 426 kts | 193° |
| 2026-04-26 01:05 | 32.84175 | -80.91382 | 35897 ft | 426 kts | 193° |
| 2026-04-26 01:05 | 32.78293 | -80.92322 | 35896 ft | 426 kts | 193° |
| 2026-04-26 01:06 | 32.72416 | -80.93294 | 35883 ft | 426 kts | 194° |
| 2026-04-26 01:06 | 32.66541 | -80.94279 | 35894 ft | 427 kts | 194° |
| 2026-04-26 01:07 | 32.60649 | -80.95268 | 35881 ft | 428 kts | 194° |
| 2026-04-26 01:07 | 32.54686 | -80.96267 | 35891 ft | 427 kts | 194° |
| 2026-04-26 01:08 | 32.48799 | -80.97251 | 35890 ft | 427 kts | 194° |
| 2026-04-26 01:08 | 32.42910 | -80.98234 | 35888 ft | 427 kts | 194° |
| 2026-04-26 01:09 | 32.37027 | -80.99215 | 35890 ft | 427 kts | 194° |
| 2026-04-26 01:09 | 32.31109 | -81.00200 | 35895 ft | 426 kts | 194° |
| 2026-04-26 01:10 | 32.25234 | -81.01177 | 35899 ft | 426 kts | 194° |
| 2026-04-26 01:10 | 32.19398 | -81.02146 | 35899 ft | 426 kts | 194° |
| 2026-04-26 01:11 | 32.13525 | -81.03120 | 35899 ft | 426 kts | 194° |
| 2026-04-26 01:11 | 32.07648 | -81.04094 | 35860 ft | 426 kts | 193° |
| 2026-04-26 01:12 | 32.01650 | -81.05086 | 35860 ft | 427 kts | 193° |
| 2026-04-26 01:12 | 31.95770 | -81.06058 | 35856 ft | 427 kts | 193° |
| 2026-04-26 01:13 | 31.89882 | -81.07029 | 35859 ft | 427 kts | 193° |
| 2026-04-26 01:13 | 31.83986 | -81.08001 | 35866 ft | 428 kts | 193° |
| 2026-04-26 01:14 | 31.78077 | -81.08973 | 35873 ft | 428 kts | 193° |
| 2026-04-26 01:14 | 31.72173 | -81.09944 | 35880 ft | 429 kts | 193° |
| 2026-04-26 01:15 | 31.66263 | -81.10914 | 35886 ft | 429 kts | 193° |
| 2026-04-26 01:15 | 31.60357 | -81.11882 | 35889 ft | 429 kts | 193° |
| 2026-04-26 01:16 | 31.54422 | -81.12853 | 35893 ft | 430 kts | 193° |
| 2026-04-26 01:16 | 31.48492 | -81.13823 | 35898 ft | 430 kts | 193° |
| 2026-04-26 01:17 | 31.42570 | -81.14790 | 35902 ft | 430 kts | 193° |
| 2026-04-26 01:17 | 31.36642 | -81.15757 | 35905 ft | 430 kts | 193° |
| 2026-04-26 01:18 | 31.30712 | -81.16723 | 35907 ft | 430 kts | 193° |
| 2026-04-26 01:18 | 31.24782 | -81.17688 | 35905 ft | 430 kts | 193° |
| 2026-04-26 01:19 | 31.18796 | -81.18660 | 35906 ft | 431 kts | 193° |
| 2026-04-26 01:19 | 31.12861 | -81.19623 | 35905 ft | 431 kts | 193° |
| 2026-04-26 01:20 | 31.06918 | -81.20586 | 35904 ft | 432 kts | 193° |
| 2026-04-26 01:20 | 31.00935 | -81.21556 | 35545 ft | 434 kts | 192° |
| 2026-04-26 01:21 | 30.97964 | -81.22035 | 35178 ft | 429 kts | 192° |
| 2026-04-26 01:21 | 30.96012 | -81.22349 | 34912 ft | 426 kts | 192° |
| 2026-04-26 01:21 | 30.93093 | -81.22819 | 34523 ft | 422 kts | 192° |
| 2026-04-26 01:21 | 30.90191 | -81.23287 | 34133 ft | 419 kts | 192° |
| 2026-04-26 01:22 | 30.87304 | -81.23753 | 33709 ft | 416 kts | 192° |
| 2026-04-26 01:22 | 30.84425 | -81.24217 | 33275 ft | 412 kts | 192° |
| 2026-04-26 01:22 | 30.81591 | -81.24674 | 32863 ft | 409 kts | 192° |
| 2026-04-26 01:22 | 30.78786 | -81.25126 | 32480 ft | 405 kts | 192° |
| 2026-04-26 01:23 | 30.76009 | -81.25573 | 32101 ft | 402 kts | 192° |
| 2026-04-26 01:23 | 30.73248 | -81.26017 | 31717 ft | 399 kts | 192° |
| 2026-04-26 01:23 | 30.70875 | -81.26399 | 31389 ft | 396 kts | 192° |
| 2026-04-26 01:23 | 30.68831 | -81.26728 | 31115 ft | 394 kts | 191° |
| 2026-04-26 01:24 | 30.66128 | -81.27163 | 30742 ft | 391 kts | 191° |
| 2026-04-26 01:24 | 30.63441 | -81.27595 | 30372 ft | 389 kts | 191° |
| 2026-04-26 01:24 | 30.60723 | -81.28004 | 29988 ft | 388 kts | 188° |
| 2026-04-26 01:24 | 30.58075 | -81.28023 | 29741 ft | 384 kts | 180° |
| 2026-04-26 01:25 | 30.55422 | -81.27829 | 29521 ft | 384 kts | 180° |
| 2026-04-26 01:25 | 30.52730 | -81.27606 | 29302 ft | 392 kts | 179° |
| 2026-04-26 01:25 | 30.49984 | -81.27375 | 29079 ft | 397 kts | 179° |
| 2026-04-26 01:25 | 30.47233 | -81.27148 | 28853 ft | 395 kts | 179° |
| 2026-04-26 01:26 | 30.44507 | -81.26928 | 28631 ft | 391 kts | 179° |
| 2026-04-26 01:26 | 30.41728 | -81.26710 | 28416 ft | 388 kts | 179° |
| 2026-04-26 01:26 | 30.39073 | -81.26507 | 28210 ft | 386 kts | 179° |
| 2026-04-26 01:26 | 30.36401 | -81.26305 | 28007 ft | 384 kts | 179° |
| 2026-04-26 01:27 | 30.33735 | -81.26105 | 27796 ft | 383 kts | 179° |
| 2026-04-26 01:27 | 30.31045 | -81.25904 | 27598 ft | 382 kts | 179° |
| 2026-04-26 01:27 | 30.28376 | -81.25705 | 27396 ft | 382 kts | 179° |
| 2026-04-26 01:27 | 30.25699 | -81.25505 | 27193 ft | 382 kts | 179° |
| 2026-04-26 01:28 | 30.23078 | -81.25310 | 26990 ft | 383 kts | 179° |
| 2026-04-26 01:28 | 30.20420 | -81.25112 | 26783 ft | 383 kts | 179° |
| 2026-04-26 01:28 | 30.17726 | -81.24911 | 26584 ft | 383 kts | 179° |
| 2026-04-26 01:28 | 30.15045 | -81.24711 | 26380 ft | 383 kts | 179° |
| 2026-04-26 01:29 | 30.12403 | -81.24514 | 26181 ft | 383 kts | 179° |
| 2026-04-26 01:29 | 30.09740 | -81.24316 | 25978 ft | 383 kts | 179° |
| 2026-04-26 01:29 | 30.07049 | -81.24115 | 25771 ft | 382 kts | 179° |
| 2026-04-26 01:29 | 30.04436 | -81.23921 | 25569 ft | 381 kts | 179° |
| 2026-04-26 01:30 | 30.01764 | -81.23722 | 25367 ft | 379 kts | 179° |
| 2026-04-26 01:30 | 29.99170 | -81.23528 | 25163 ft | 378 kts | 179° |
| 2026-04-26 01:30 | 29.96514 | -81.23331 | 24960 ft | 376 kts | 179° |
| 2026-04-26 01:30 | 29.93908 | -81.23137 | 24761 ft | 375 kts | 179° |
| 2026-04-26 01:31 | 29.91311 | -81.22945 | 24558 ft | 373 kts | 179° |
| 2026-04-26 01:31 | 29.88723 | -81.22753 | 24355 ft | 372 kts | 179° |
| 2026-04-26 01:31 | 29.86149 | -81.22562 | 24160 ft | 371 kts | 179° |
| 2026-04-26 01:31 | 29.83579 | -81.22372 | 23961 ft | 369 kts | 179° |
| 2026-04-26 01:32 | 29.81017 | -81.22182 | 23763 ft | 368 kts | 179° |
| 2026-04-26 01:32 | 29.78458 | -81.21993 | 23560 ft | 368 kts | 179° |
| 2026-04-26 01:32 | 29.75965 | -81.21808 | 23345 ft | 367 kts | 179° |
| 2026-04-26 01:32 | 29.73370 | -81.21616 | 23106 ft | 366 kts | 179° |
| 2026-04-26 01:33 | 29.70839 | -81.21429 | 22895 ft | 364 kts | 179° |
| 2026-04-26 01:33 | 29.68300 | -81.21227 | 22565 ft | 367 kts | 179° |
| 2026-04-26 01:33 | 29.65765 | -81.21009 | 22250 ft | 368 kts | 179° |
| 2026-04-26 01:33 | 29.63200 | -81.20785 | 21924 ft | 365 kts | 178° |
| 2026-04-26 01:34 | 29.60649 | -81.20562 | 21603 ft | 363 kts | 178° |
| 2026-04-26 01:34 | 29.58120 | -81.20341 | 21294 ft | 361 kts | 178° |
| 2026-04-26 01:34 | 29.55665 | -81.20129 | 20991 ft | 360 kts | 179° |
| 2026-04-26 01:34 | 29.53180 | -81.19916 | 20674 ft | 357 kts | 178° |
| 2026-04-26 01:35 | 29.50716 | -81.19704 | 20370 ft | 353 kts | 178° |
| 2026-04-26 01:35 | 29.48243 | -81.19492 | 20066 ft | 350 kts | 178° |
| 2026-04-26 01:35 | 29.45827 | -81.19285 | 19767 ft | 347 kts | 178° |
| 2026-04-26 01:35 | 29.43349 | -81.19074 | 19460 ft | 345 kts | 178° |
| 2026-04-26 01:36 | 29.41007 | -81.18874 | 19174 ft | 342 kts | 178° |
| 2026-04-26 01:36 | 29.38603 | -81.18669 | 18875 ft | 340 kts | 178° |
| 2026-04-26 01:36 | 29.36251 | -81.18468 | 18590 ft | 339 kts | 178° |
| 2026-04-26 01:37 | 29.31555 | -81.18068 | 17967 ft | 337 kts | 178° |
| 2026-04-26 01:37 | 29.29218 | -81.17868 | 17653 ft | 336 kts | 178° |
| 2026-04-26 01:37 | 29.26897 | -81.17665 | 17338 ft | 334 kts | 178° |
| 2026-04-26 01:37 | 29.24583 | -81.17574 | 16967 ft | 332 kts | 182° |
| 2026-04-26 01:38 | 29.22273 | -81.17601 | 16562 ft | 332 kts | 184° |
| 2026-04-26 01:38 | 29.19969 | -81.17658 | 16202 ft | 330 kts | 184° |
| 2026-04-26 01:38 | 29.17707 | -81.17716 | 15878 ft | 328 kts | 184° |
| 2026-04-26 01:38 | 29.15395 | -81.17769 | 15537 ft | 327 kts | 184° |
| 2026-04-26 01:39 | 29.13128 | -81.17813 | 15213 ft | 325 kts | 183° |
| 2026-04-26 01:39 | 29.10869 | -81.17851 | 14886 ft | 324 kts | 183° |
| 2026-04-26 01:39 | 29.08627 | -81.17886 | 14563 ft | 322 kts | 183° |
| 2026-04-26 01:39 | 29.06392 | -81.17918 | 14241 ft | 320 kts | 183° |
| 2026-04-26 01:40 | 29.04135 | -81.17948 | 13919 ft | 319 kts | 183° |
| 2026-04-26 01:40 | 29.01923 | -81.17977 | 13584 ft | 318 kts | 183° |
| 2026-04-26 01:40 | 28.99690 | -81.18006 | 13237 ft | 315 kts | 183° |
| 2026-04-26 01:40 | 28.97499 | -81.18034 | 12911 ft | 313 kts | 183° |
| 2026-04-26 01:41 | 28.95332 | -81.18061 | 12581 ft | 311 kts | 183° |
| 2026-04-26 01:41 | 28.93172 | -81.18089 | 12253 ft | 309 kts | 183° |
| 2026-04-26 01:41 | 28.91029 | -81.18116 | 11927 ft | 307 kts | 183° |
| 2026-04-26 01:41 | 28.88895 | -81.18143 | 11603 ft | 306 kts | 183° |
| 2026-04-26 01:42 | 28.86774 | -81.18170 | 11295 ft | 304 kts | 183° |
| 2026-04-26 01:42 | 28.84667 | -81.18196 | 10980 ft | 302 kts | 183° |
| 2026-04-26 01:42 | 28.82574 | -81.18222 | 10688 ft | 300 kts | 183° |
| 2026-04-26 01:42 | 28.80494 | -81.18249 | 10396 ft | 298 kts | 183° |
| 2026-04-26 01:43 | 28.78445 | -81.18274 | 10169 ft | 289 kts | 183° |
| 2026-04-26 01:43 | 28.76500 | -81.18295 | 10092 ft | 269 kts | 183° |
| 2026-04-26 01:43 | 28.74698 | -81.18315 | 9962 ft | 249 kts | 184° |
| 2026-04-26 01:43 | 28.73023 | -81.18334 | 9833 ft | 232 kts | 184° |
| 2026-04-26 01:44 | 28.71455 | -81.18353 | 9520 ft | 225 kts | 184° |
| 2026-04-26 01:44 | 28.69916 | -81.18374 | 9245 ft | 216 kts | 184° |
| 2026-04-26 01:44 | 28.68930 | -81.18387 | 9094 ft | 212 kts | 184° |
| 2026-04-26 01:44 | 28.67474 | -81.18406 | 8939 ft | 209 kts | 184° |
| 2026-04-26 01:45 | 28.66004 | -81.18427 | 8791 ft | 213 kts | 184° |
| 2026-04-26 01:45 | 28.64481 | -81.18448 | 8626 ft | 217 kts | 184° |
| 2026-04-26 01:45 | 28.62973 | -81.18468 | 8456 ft | 215 kts | 184° |
| 2026-04-26 01:45 | 28.61484 | -81.18487 | 8280 ft | 213 kts | 184° |
| 2026-04-26 01:46 | 28.60014 | -81.18505 | 8119 ft | 210 kts | 184° |
| 2026-04-26 01:46 | 28.58555 | -81.18524 | 7965 ft | 209 kts | 184° |
| 2026-04-26 01:46 | 28.57107 | -81.18542 | 7814 ft | 208 kts | 184° |
| 2026-04-26 01:46 | 28.55664 | -81.18560 | 7653 ft | 207 kts | 184° |
| 2026-04-26 01:47 | 28.54212 | -81.18579 | 7503 ft | 207 kts | 183° |
| 2026-04-26 01:47 | 28.52763 | -81.18597 | 7343 ft | 207 kts | 183° |
| 2026-04-26 01:47 | 28.51316 | -81.18615 | 7195 ft | 208 kts | 183° |
| 2026-04-26 01:47 | 28.49836 | -81.18634 | 7052 ft | 208 kts | 183° |
| 2026-04-26 01:48 | 28.48415 | -81.18652 | 6915 ft | 207 kts | 183° |
| 2026-04-26 01:48 | 28.46956 | -81.18669 | 6947 ft | 204 kts | 183° |
| 2026-04-26 01:48 | 28.45535 | -81.18769 | 6938 ft | 205 kts | 198° |
| 2026-04-26 01:48 | 28.44248 | -81.19432 | 6949 ft | 205 kts | 200° |
| 2026-04-26 01:49 | 28.42826 | -81.19535 | 6976 ft | 208 kts | 180° |
| 2026-04-26 01:49 | 28.41379 | -81.19377 | 6959 ft | 209 kts | 173° |
| 2026-04-26 01:49 | 28.39954 | -81.19073 | 6942 ft | 210 kts | 162° |
| 2026-04-26 01:49 | 28.38786 | -81.18099 | 6961 ft | 214 kts | 126° |
| 2026-04-26 01:50 | 28.38304 | -81.16508 | 6951 ft | 218 kts | 91° |
| 2026-04-26 01:50 | 28.38710 | -81.14845 | 6958 ft | 218 kts | 54° |
| 2026-04-26 01:50 | 28.39841 | -81.13754 | 6913 ft | 213 kts | 19° |
| 2026-04-26 01:50 | 28.41267 | -81.13514 | 6647 ft | 206 kts | 355° |
| 2026-04-26 01:51 | 28.42705 | -81.13606 | 6206 ft | 209 kts | 353° |
| 2026-04-26 01:51 | 28.44150 | -81.13730 | 5794 ft | 209 kts | 353° |
| 2026-04-26 01:51 | 28.45614 | -81.13860 | 5416 ft | 207 kts | 353° |
| 2026-04-26 01:51 | 28.47029 | -81.13991 | 5050 ft | 206 kts | 353° |
| 2026-04-26 01:52 | 28.48457 | -81.14126 | 4699 ft | 204 kts | 353° |
| 2026-04-26 01:52 | 28.49878 | -81.14262 | 4288 ft | 203 kts | 353° |
| 2026-04-26 01:52 | 28.51290 | -81.14401 | 4049 ft | 204 kts | 353° |
| 2026-04-26 01:52 | 28.52722 | -81.14546 | 4045 ft | 209 kts | 353° |
| 2026-04-26 01:53 | 28.54164 | -81.14693 | 4012 ft | 206 kts | 353° |
| 2026-04-26 01:53 | 28.55575 | -81.14838 | 3985 ft | 201 kts | 353° |
| 2026-04-26 01:53 | 28.56966 | -81.14981 | 3978 ft | 203 kts | 353° |
| 2026-04-26 01:53 | 28.58380 | -81.15126 | 3992 ft | 205 kts | 353° |
| 2026-04-26 01:54 | 28.59805 | -81.15273 | 3983 ft | 205 kts | 353° |
| 2026-04-26 01:54 | 28.61220 | -81.15418 | 3983 ft | 204 kts | 353° |
| 2026-04-26 01:54 | 28.62634 | -81.15564 | 3980 ft | 204 kts | 351° |
| 2026-04-26 01:54 | 28.63925 | -81.16166 | 3909 ft | 197 kts | 316° |
| 2026-04-26 01:55 | 28.64606 | -81.17457 | 3655 ft | 192 kts | 279° |
| 2026-04-26 01:55 | 28.64606 | -81.18968 | 3312 ft | 192 kts | 264° |
| 2026-04-26 01:55 | 28.64481 | -81.20487 | 3030 ft | 193 kts | 263° |
| 2026-04-26 01:55 | 28.64351 | -81.22029 | 3005 ft | 196 kts | 263° |
| 2026-04-26 01:56 | 28.64219 | -81.23560 | 2983 ft | 192 kts | 263° |
| 2026-04-26 01:56 | 28.64089 | -81.25075 | 2979 ft | 193 kts | 263° |
| 2026-04-26 01:56 | 28.63956 | -81.26605 | 2988 ft | 196 kts | 261° |
| 2026-04-26 01:56 | 28.63493 | -81.27816 | 2946 ft | 193 kts | 226° |
| 2026-04-26 01:57 | 28.62289 | -81.28416 | 2702 ft | 192 kts | 181° |
| 2026-04-26 01:57 | 28.61065 | -81.28349 | 2707 ft | 162 kts | 180° |
| 2026-04-26 01:57 | 28.59988 | -81.28349 | 2581 ft | 146 kts | 181° |
| 2026-04-26 01:57 | 28.58989 | -81.28367 | 2488 ft | 140 kts | 181° |
| 2026-04-26 01:58 | 28.58016 | -81.28392 | 2482 ft | 141 kts | 182° |
| 2026-04-26 01:58 | 28.57036 | -81.28416 | 2478 ft | 141 kts | 180° |
| 2026-04-26 01:58 | 28.56054 | -81.28388 | 2328 ft | 144 kts | 180° |
| 2026-04-26 01:58 | 28.55056 | -81.28374 | 2152 ft | 139 kts | 180° |
| 2026-04-26 01:59 | 28.54091 | -81.28347 | 1898 ft | 139 kts | 179° |
| 2026-04-26 01:59 | 28.53112 | -81.28319 | 1688 ft | 143 kts | 178° |
| 2026-04-26 01:59 | 28.52089 | -81.28309 | 1488 ft | 147 kts | 179° |
| 2026-04-26 01:59 | 28.51043 | -81.28310 | 1341 ft | 146 kts | 179° |
| 2026-04-26 02:00 | 28.50031 | -81.28299 | 1126 ft | 147 kts | 177° |
| 2026-04-26 02:00 | 28.49016 | -81.28299 | 989 ft | 145 kts | 178° |
| 2026-04-26 02:00 | 28.48008 | -81.28298 | 821 ft | 145 kts | 178° |
| 2026-04-26 02:00 | 28.47000 | -81.28290 | 657 ft | 145 kts | 174° |
| 2026-04-26 02:01 | 28.45987 | -81.28270 | 495 ft | 146 kts | 178° |
| 2026-04-26 02:01 | 28.44966 | -81.28261 | 283 ft | 144 kts | 176° |
| 2026-04-26 02:01 | 28.43968 | -81.28255 | 114 ft | 141 kts | 178° |
| 2026-04-26 02:01 | 28.43030 | -81.28244 | 99 ft | 122 kts | 180° |
| 2026-04-26 02:02 | 28.42344 | -81.28256 | 107 ft | 66 kts | 203° |
| 2026-04-26 02:02 | 28.42263 | -81.28332 | 107 ft | 1 kts | 268° |
| 2026-04-26 02:02 | 28.42266 | -81.28335 | 107 ft | 0 kts | 307° |
| 2026-04-26 02:02 | 28.42278 | -81.28350 | 107 ft | 5 kts | 315° |
| 2026-04-26 02:03 | 28.42322 | -81.28361 | 106 ft | 9 kts | 355° |
| 2026-04-26 02:03 | 28.42409 | -81.28363 | 106 ft | 15 kts | 359° |
| 2026-04-26 02:03 | 28.42515 | -81.28364 | 106 ft | 17 kts | 360° |
| 2026-04-26 02:03 | 28.42652 | -81.28365 | 106 ft | 22 kts | 359° |
| 2026-04-26 02:04 | 28.42768 | -81.28367 | 103 ft | 26 kts | 359° |
| 2026-04-26 02:04 | 28.42968 | -81.28368 | 99 ft | 31 kts | 360° |
| 2026-04-26 02:04 | 28.43196 | -81.28371 | 98 ft | 35 kts | 358° |
| 2026-04-26 02:04 | 28.43446 | -81.28373 | 100 ft | 37 kts | 360° |
| 2026-04-26 02:05 | 28.43699 | -81.28375 | 103 ft | 34 kts | 359° |
| 2026-04-26 02:05 | 28.43852 | -81.28385 | 106 ft | 8 kts | 329° |
| 2026-04-26 02:05 | 28.43876 | -81.28459 | 106 ft | 13 kts | 271° |
| 2026-04-26 02:05 | 28.43875 | -81.28586 | 106 ft | 18 kts | 269° |
| 2026-04-26 02:06 | 28.43873 | -81.28749 | 105 ft | 22 kts | 269° |
| 2026-04-26 02:06 | 28.43872 | -81.28934 | 106 ft | 26 kts | 269° |
| 2026-04-26 02:06 | 28.43869 | -81.29153 | 99 ft | 21 kts | 270° |
| 2026-04-26 02:06 | 28.43792 | -81.29264 | 100 ft | 19 kts | 182° |
| 2026-04-26 02:07 | 28.43644 | -81.29263 | 102 ft | 23 kts | 179° |
| 2026-04-26 02:07 | 28.43560 | -81.29300 | 102 ft | 11 kts | 243° |
| 2026-04-26 02:07 | 28.43553 | -81.29395 | 105 ft | 14 kts | 269° |
| 2026-04-26 02:07 | 28.43552 | -81.29476 | 105 ft | 0 kts | 269° |
| 2026-04-26 02:08 | 28.43552 | -81.29478 | 105 ft | 0 kts | 269° |
| 2026-04-26 02:09 | 28.43552 | -81.29479 | 105 ft | 1 kts | 269° |
| 2026-04-26 02:09 | 28.43552 | -81.29520 | 105 ft | 9 kts | 269° |
| 2026-04-26 02:09 | 28.43550 | -81.29620 | 103 ft | 16 kts | 270° |
| 2026-04-26 02:09 | 28.43550 | -81.29766 | 103 ft | 19 kts | 269° |
| 2026-04-26 02:10 | 28.43575 | -81.29884 | 100 ft | 12 kts | 323° |
| 2026-04-26 02:10 | 28.43661 | -81.29891 | 101 ft | 14 kts | 0° |
| 2026-04-26 02:10 | 28.43766 | -81.29924 | 101 ft | 18 kts | 326° |
| 2026-04-26 02:10 | 28.43827 | -81.30065 | 100 ft | 23 kts | 273° |
| 2026-04-26 02:11 | 28.43740 | -81.30236 | 100 ft | 27 kts | 232° |
| 2026-04-26 02:11 | 28.43684 | -81.30317 | 100 ft | 8 kts | 232° |
| 2026-04-26 02:11 | 28.43643 | -81.30375 | 99 ft | 1 kts | 232° |
| 2026-04-26 02:11 | 28.43630 | -81.30394 | 100 ft | 5 kts | 229° |
| 2026-04-26 02:12 | 28.43597 | -81.30391 | 100 ft | 6 kts | 135° |
| 2026-04-26 02:12 | 28.43581 | -81.30372 | 100 ft | 1 kts | 134° |
| 2026-04-26 02:12 | 28.43580 | -81.30371 | 100 ft | 0 kts | 134° |
| 2026-04-26 02:12 | 28.43585 | -81.30376 | 100 ft | 0 kts | 134° |